Cozy Lake, New Jersey
Current Conditions -  °F | °C
As of 1:34 AM on Monday 24 Nov 2014 (Local Time) from KFWN Reporting Station
Light Rain Light Rain  
Wind Chill: 43°   Ceiling: 1400
Heat Index: 43°   Visibility: 9mi
Dew Point: 36°   Wind: 0mph
Humidity: 76%   Direction: NA
Pressure: 29.88"   Gusts: NA
Location:  41.0321°N, 74.5162°W
Report Text: KFWN 240634Z AUTO 00000KT 9SM -RA OVC014 06/02 A2988 RMK AO2 RAB02 P0000 T00610022
Loading
Personal Weather Stations






























Interactive Weather Map New forecast layout! Learn more

10-Day Weather Forecast

Advertisements
Track Severe Weather on mobile